Excellent — IBBE — position and weather

sailwx.info

Track history (hours):
 
Tides and Currents Weather Stations Pressure Air Temp Water Temp Dewpoint Dewpoint Depression Visibility Wind Speed Wind Dir Waves Ship Positions

Excellent

Last reported at 2018-Jan-21 14:55 UTC. Time now 2018-Jan-21 16:59 UTC.
Position N 30°19' W 012°56'.

Length 202 m; draft 6.5 m.

Type: Passenger vessel. MMSI: 247279000.

Date/timePositionNaut miles runAvg speedWind from/ knotsBaromVisibWave heightAir tempDewpointWater temp
2018-Jan-21 14:55N 30°19' W 012°56'6319.7
2018-Jan-21 11:43N 29°35' W 013°48'419.6
2018-Jan-21 11:30N 29°32' W 013°51'714.2
2018-Jan-21 11:00N 29°27' W 013°56'611.8
2018-Jan-21 10:30N 29°22' W 014°01'711.9
2018-Jan-21 09:56N 29°18' W 014°06'612.1
2018-Jan-21 09:25N 29°13' W 014°11'511.7
2018-Jan-21 09:00N 29°10' W 014°15'711.9
2018-Jan-21 08:25N 29°04' W 014°21'511.9
2018-Jan-21 08:00N 29°01' W 014°24'611.8
2018-Jan-21 07:30N 28°56' W 014°29'611.8
2018-Jan-21 07:00N 28°52' W 014°33'611.6
2018-Jan-21 06:30N 28°48' W 014°38'611.6
2018-Jan-21 06:00N 28°43' W 014°42'611.9
2018-Jan-21 05:29N 28°38' W 014°47'611.9
2018-Jan-21 05:00N 28°34' W 014°51'611.7
2018-Jan-21 04:30N 28°30' W 014°56'611.7
2018-Jan-21 04:00N 28°26' W 015°00'612.2
2018-Jan-21 03:30N 28°21' W 015°05'612.3
2018-Jan-21 03:00N 28°17' W 015°09'611.6
2018-Jan-21 02:30N 28°12' W 015°14'4 8.7
2018-Jan-21 02:00N 28°09' W 015°17'510.5
2018-Jan-21 01:30N 28°07' W 015°23'2 3.8
2018-Jan-21 00:57N 28°08' W 015°25'0 0.0
2018-Jan-21 00:27N 28°08' W 015°25'0 0.0
2018-Jan-20 23:57N 28°08' W 015°25'0 0.0
2018-Jan-20 23:27N 28°08' W 015°25'0 0.0
2018-Jan-20 23:00N 28°08' W 015°25'0 0.0
2018-Jan-20 22:30N 28°08' W 015°25'0 0.0
2018-Jan-20 22:00N 28°08' W 015°25'0 0.0
2018-Jan-20 21:30N 28°08' W 015°25'0 0.0
2018-Jan-20 21:00N 28°08' W 015°25'0 0.0
2018-Jan-20 20:30N 28°08' W 015°25'0 0.0
2018-Jan-20 20:00N 28°08' W 015°25'0 0.0
2018-Jan-20 19:30N 28°08' W 015°25'0 0.0
2018-Jan-20 19:00N 28°08' W 015°25'0 0.0
2018-Jan-20 18:30N 28°08' W 015°25'0 0.1
2018-Jan-20 17:51N 28°09' W 015°25'0 0.0
2018-Jan-20 17:21N 28°09' W 015°25'0 0.0
2018-Jan-20 16:55N 28°09' W 015°25'0 0.1
2018-Jan-20 16:30N 28°08' W 015°25'1 1.0
2018-Jan-20 16:00N 28°08' W 015°25'2 4.9
2018-Jan-20 15:30N 28°06' W 015°23'815.4
2018-Jan-20 14:59N 28°01' W 015°16'918.9
2018-Jan-20 14:30N 27°51' W 015°16'1018.9
2018-Jan-20 13:59N 27°42' W 015°16'  
2018-Jan-11 22:00N 17°17' W 062°43'  
Track history (hours):
 
Tides and Currents Weather Stations Pressure Air Temp Water Temp Dewpoint Dewpoint Depression Visibility Wind Speed Wind Dir Waves Ship Positions

Excellent

Last reported at 2018-Jan-21 14:55 UTC. Time now 2018-Jan-21 16:59 UTC.
Position N 30°19' W 012°56'.

Length 202 m; draft 6.5 m.

Type: Passenger vessel. MMSI: 247279000.

Date/timePositionNaut miles runAvg speedWind from/ knotsBaromVisibWave heightAir tempDewpointWater temp
2018-Jan-21 14:55N 30°19' W 012°56'6319.7
2018-Jan-21 11:43N 29°35' W 013°48'419.6
2018-Jan-21 11:30N 29°32' W 013°51'714.2
2018-Jan-21 11:00N 29°27' W 013°56'611.8
2018-Jan-21 10:30N 29°22' W 014°01'711.9
2018-Jan-21 09:56N 29°18' W 014°06'612.1
2018-Jan-21 09:25N 29°13' W 014°11'511.7
2018-Jan-21 09:00N 29°10' W 014°15'711.9
2018-Jan-21 08:25N 29°04' W 014°21'511.9
2018-Jan-21 08:00N 29°01' W 014°24'611.8
2018-Jan-21 07:30N 28°56' W 014°29'611.8
2018-Jan-21 07:00N 28°52' W 014°33'611.6
2018-Jan-21 06:30N 28°48' W 014°38'611.6
2018-Jan-21 06:00N 28°43' W 014°42'611.9
2018-Jan-21 05:29N 28°38' W 014°47'611.9
2018-Jan-21 05:00N 28°34' W 014°51'611.7
2018-Jan-21 04:30N 28°30' W 014°56'611.7
2018-Jan-21 04:00N 28°26' W 015°00'612.2
2018-Jan-21 03:30N 28°21' W 015°05'612.3
2018-Jan-21 03:00N 28°17' W 015°09'611.6
2018-Jan-21 02:30N 28°12' W 015°14'4 8.7
2018-Jan-21 02:00N 28°09' W 015°17'510.5
2018-Jan-21 01:30N 28°07' W 015°23'2 3.8
2018-Jan-21 00:57N 28°08' W 015°25'0 0.0
2018-Jan-21 00:27N 28°08' W 015°25'0 0.0
2018-Jan-20 23:57N 28°08' W 015°25'0 0.0
2018-Jan-20 23:27N 28°08' W 015°25'0 0.0
2018-Jan-20 23:00N 28°08' W 015°25'0 0.0
2018-Jan-20 22:30N 28°08' W 015°25'0 0.0
2018-Jan-20 22:00N 28°08' W 015°25'0 0.0
2018-Jan-20 21:30N 28°08' W 015°25'0 0.0
2018-Jan-20 21:00N 28°08' W 015°25'0 0.0
2018-Jan-20 20:30N 28°08' W 015°25'0 0.0
2018-Jan-20 20:00N 28°08' W 015°25'0 0.0
2018-Jan-20 19:30N 28°08' W 015°25'0 0.0
2018-Jan-20 19:00N 28°08' W 015°25'0 0.0
2018-Jan-20 18:30N 28°08' W 015°25'0 0.1
2018-Jan-20 17:51N 28°09' W 015°25'0 0.0
2018-Jan-20 17:21N 28°09' W 015°25'0 0.0
2018-Jan-20 16:55N 28°09' W 015°25'0 0.1
2018-Jan-20 16:30N 28°08' W 015°25'1 1.0
2018-Jan-20 16:00N 28°08' W 015°25'2 4.9
2018-Jan-20 15:30N 28°06' W 015°23'815.4
2018-Jan-20 14:59N 28°01' W 015°16'918.9
2018-Jan-20 14:30N 27°51' W 015°16'1018.9
2018-Jan-20 13:59N 27°42' W 015°16'  
2018-Jan-11 22:00N 17°17' W 062°43'  

Dump ship's entire track history